Terminal Aerodrome Forecast
Issued by NWS Paducah, KY

Home | Current Version | Previous Version | Text Only | Print | Product List | Glossary On
Versions: 1 2 3 4 5 6 7 8 9 10 11 12 13 14 15 16 17 18 19 20 21 22
000
FTUS43 KPAH 022336
TAFEVV
TAF
KEVV 022336Z 0300/0324 36003KT P6SM SCT025 BKN040
     FM030700 34003KT 6SM BR OVC007
      TEMPO 0309/0313 4SM BR BKN004
     FM031600 32004KT P6SM BKN012
     FM032100 32006KT P6SM BKN020=

USA.gov is the U.S. government's official web portal to all federal, state and local government web resources and services.